Historique des stations

Retrouvez les conditions météo en temps réel en cliquant ici...

Station météo de Etrechet

Altitude de la station : 156 m







Données météorologiques pour le 20/10/2020
Date
Heure
Températures Humidité Point de rosée Vitesse
du vent
Direction Rafales Windchill Pression Pluviométrie
Cumul
Date
Heure
Températures Humidité Point de rosée Vitesse
du vent
Direction Rafales Windchill Pression Pluviométrie
Cumul
20/10/2020 19:1414.7 °C90 %13.3 °C6 km/hE24 km/h15.0 1006 hPa1.4 mm
20/10/2020 18:5814.7 °C91 %13.3 °C5 km/hE24 km/h15.0 1006 hPa1.4 mm
20/10/2020 18:4414.6 °C91 %13.3 °C6 km/hE24 km/h14.4 1007 hPa1.4 mm
20/10/2020 18:2914.3 °C92 %13.3 °C3 km/hSE24 km/h14.4 1007 hPa1.4 mm
20/10/2020 18:1414.3 °C92 %13.3 °C3 km/hE24 km/h14.4 1007 hPa1.4 mm
20/10/2020 17:5814.4 °C92 %13.3 °C2 km/hESE24 km/h14.4 1007 hPa1.4 mm
20/10/2020 17:4414.3 °C92 %13.3 °C6 km/hE24 km/h14.4 1007 hPa1.4 mm
20/10/2020 17:2914.4 °C92 %13.3 °C2 km/hESE24 km/h14.4 1008 hPa1.4 mm
20/10/2020 17:1414.4 °C92 %13.3 °C2 km/hESE24 km/h14.4 1008 hPa1.4 mm
20/10/2020 16:5914.4 °C92 %13.3 °C2 km/hE24 km/h14.4 1008 hPa1.4 mm
20/10/2020 16:4414.4 °C92 %13.3 °C2 km/hESE24 km/h14.4 1008 hPa1.4 mm
20/10/2020 16:2914.3 °C92 %13.3 °C11 km/hE24 km/h13.3 1008 hPa1.2 mm
20/10/2020 16:1414.3 °C92 %12.8 °C11 km/hE24 km/h13.3 1008 hPa1.2 mm
20/10/2020 15:5914.3 °C92 %13.3 °C14 km/hE24 km/h12.8 1008 hPa1.2 mm
20/10/2020 15:4414.3 °C92 %13.3 °C13 km/hE24 km/h13.3 1008 hPa1.2 mm
20/10/2020 15:2914.3 °C91 %12.8 °C11 km/hE24 km/h13.3 1008 hPa1 mm
20/10/2020 15:1314.3 °C90 %12.8 °C16 km/hE24 km/h12.8 1009 hPa0.8 mm
20/10/2020 14:5914.3 °C90 %12.8 °C11 km/hE24 km/h13.3 1009 hPa0.8 mm
20/10/2020 14:4314.1 °C90 %12.8 °C11 km/hE24 km/h12.8 1009 hPa0.8 mm
20/10/2020 14:2914.1 °C90 %12.8 °C13 km/hE24 km/h12.8 1009 hPa0.8 mm
20/10/2020 14:1314.0 °C90 %12.2 °C10 km/hESE24 km/h13.3 1009 hPa0.8 mm
20/10/2020 13:5913.9 °C90 %12.2 °C5 km/hESE24 km/h13.9 1009 hPa0.8 mm
20/10/2020 13:4313.8 °C91 %12.2 °C6 km/hESE24 km/h13.9 1010 hPa0.8 mm
20/10/2020 13:2913.7 °C91 %12.2 °C10 km/hESE24 km/h13.3 1010 hPa0.8 mm
20/10/2020 13:1313.6 °C91 %12.2 °C11 km/hESE24 km/h12.8 1010 hPa0.8 mm
20/10/2020 12:5913.6 °C90 %12.2 °C10 km/hE24 km/h13.3 1010 hPa0.8 mm
20/10/2020 12:4413.6 °C90 %12.2 °C6 km/hE24 km/h13.3 1010 hPa0.8 mm
20/10/2020 12:2813.6 °C90 %12.2 °C3 km/hE24 km/h13.9 1010 hPa0.8 mm
20/10/2020 12:1413.7 °C90 %12.2 °C6 km/hE24 km/h13.9 1010 hPa0.8 mm
20/10/2020 11:5813.7 °C89 %12.2 °C8 km/hE24 km/h13.3 1010 hPa0.6 mm
20/10/2020 11:4413.7 °C89 %12.2 °C8 km/hE24 km/h13.3 1010 hPa0.6 mm
20/10/2020 11:2813.8 °C89 %12.2 °C8 km/hE24 km/h13.3 1010 hPa0.6 mm
20/10/2020 11:1413.7 °C88 %11.7 °C5 km/hE24 km/h13.9 1010 hPa0.6 mm
20/10/2020 11:0013.6 °C88 %11.7 °C11 km/hESE24 km/h12.8 1010 hPa0.6 mm
20/10/2020 10:4413.6 °C88 %11.7 °C13 km/hE24 km/h11.7 1009 hPa0.6 mm
20/10/2020 10:2813.8 °C87 %11.7 °C6 km/hE24 km/h13.9 1009 hPa0.4 mm
20/10/2020 10:1414.2 °C84 %11.7 °C5 km/hESE24 km/h14.4 1009 hPa0.4 mm
20/10/2020 09:5814.6 °C83 %11.7 °C-S24 km/h14.4 1009 hPa0.2 mm
20/10/2020 09:4414.7 °C81 %11.7 °C6 km/hS24 km/h15.0 1009 hPa0.2 mm
20/10/2020 09:2814.8 °C79 %11.1 °C5 km/hS24 km/h15.0 1009 hPa0.2 mm
20/10/2020 09:1414.9 °C78 %11.1 °C10 km/hS24 km/h14.4 1009 hPa0.2 mm
20/10/2020 09:0014.9 °C78 %11.1 °C10 km/hS24 km/h14.4 1009 hPa0.2 mm
20/10/2020 08:4415.3 °C77 %11.1 °C10 km/hSSE24 km/h15.0 1009 hPa-
20/10/2020 08:2915.4 °C76 %11.1 °C6 km/hSSO24 km/h15.6 1009 hPa-
20/10/2020 08:1415.4 °C75 %11.1 °C11 km/hS24 km/h15.0 1009 hPa-
20/10/2020 07:5915.3 °C75 %11.1 °C16 km/hSSO24 km/h13.9 1009 hPa-
20/10/2020 07:4414.7 °C75 %10.6 °C21 km/hS23 km/h11.7 1009 hPa-
20/10/2020 07:2914.8 °C74 %10.0 °C11 km/hS23 km/h14.4 1009 hPa-
20/10/2020 07:1414.8 °C73 %10.0 °C8 km/hSSE23 km/h15.0 1009 hPa-
20/10/2020 06:5914.7 °C74 %10.0 °C8 km/hSSE23 km/h15.0 1009 hPa-
20/10/2020 06:4414.4 °C75 %10.0 °C10 km/hSSE19 km/h13.9 1009 hPa-
20/10/2020 06:2914.2 °C76 %10.0 °C10 km/hS19 km/h13.9 1009 hPa-
20/10/2020 06:1413.9 °C77 %10.0 °C11 km/hSSE19 km/h12.8 1009 hPa-
20/10/2020 05:5913.4 °C79 %10.0 °C11 km/hSE19 km/h12.2 1009 hPa-
20/10/2020 05:4412.6 °C83 %10.0 °C14 km/hSE16 km/h11.1 1009 hPa-
20/10/2020 05:2911.3 °C88 %9.4 °C10 km/hSSE13 km/h10.0 1009 hPa-
20/10/2020 05:1410.2 °C90 %8.9 °C10 km/hSSE13 km/h8.3 1010 hPa-
20/10/2020 04:599.6 °C92 %8.3 °C6 km/hESE10 km/h8.3 1010 hPa-
20/10/2020 04:449.0 °C92 %7.8 °C3 km/hE10 km/h8.3 1010 hPa-
20/10/2020 04:298.8 °C92 %7.8 °C2 km/hE10 km/h8.9 1010 hPa-
20/10/2020 04:148.6 °C92 %7.2 °C2 km/hE10 km/h8.9 1010 hPa-
20/10/2020 03:598.5 °C92 %7.2 °C3 km/hNNE10 km/h7.8 1010 hPa-
20/10/2020 03:448.3 °C93 %7.2 °C2 km/hE10 km/h8.3 1010 hPa-
20/10/2020 03:297.8 °C92 %6.7 °C6 km/hENE10 km/h6.7 1010 hPa-
20/10/2020 03:147.8 °C92 %6.7 °C3 km/hENE10 km/h7.2 1010 hPa-
20/10/2020 02:597.8 °C92 %6.7 °C-E10 km/h7.8 1010 hPa-
20/10/2020 02:447.8 °C92 %6.7 °C3 km/hE10 km/h7.2 1010 hPa-
20/10/2020 02:297.9 °C92 %6.7 °C2 km/hE10 km/h7.8 1010 hPa-
20/10/2020 02:147.9 °C92 %6.7 °C3 km/hE10 km/h7.2 1010 hPa-
20/10/2020 01:597.9 °C92 %6.7 °C6 km/hE8 km/h6.7 1010 hPa-
20/10/2020 01:447.8 °C92 %6.7 °C3 km/hE6 km/h7.2 1010 hPa-
20/10/2020 01:297.8 °C91 %6.7 °C6 km/hE6 km/h6.7 1010 hPa-
20/10/2020 01:147.8 °C91 %6.7 °C5 km/hENE6 km/h7.2 1010 hPa-
20/10/2020 00:597.8 °C91 %6.7 °C6 km/hENE6 km/h6.7 1010 hPa-
20/10/2020 00:447.8 °C89 %6.1 °C-NE5 km/h7.8 1010 hPa-
20/10/2020 00:298.1 °C88 %6.1 °C-ESE5 km/h8.3 1010 hPa-
20/10/2020 00:148.3 °C87 %6.1 °C2 km/hESE5 km/h8.3 1010 hPa-


Minima :

Température : 7.8 °C
Humidité : 73 %
Point de rosée : 6.1 °C
Vent moyen : 2 km/h
Windchill : 6.7
Pression atm. : 1006 hPa
Maxima :

Température : 15.4 °C
Humidité : 93 %
Point de rosée : 13.3 °C
Vent moyen : 21 km/h
Windchill : 15.6
Pression atm. : 1010 hPa
Rafales max : 24 km/h
Cumul de pluie sur 24H : 1.4 mm

Etrechet est une commune du département Indre (36).
La station météorologique du réseau de l'association la plus proche de Etrechet est celle de Saint-Maur



Icône Facebook Association Météo Centre Icône Twitter Association Météo Centre Icône Chaîne Youtube Association Météo Centre Icône contact Association Météo Centre Icône Insta Association Météo Centre